Time;durP1;ratioP1;P1;durP2;ratioP2;P2;SDS_P1;SDS_P2;PMS_P1;PMS_P2;Temp;Humidity;BMP_temperature;BMP_pressure;BME280_temperature;BME280_humidity;BME280_pressure;Samples;Min_cycle;Max_cycle;Signal;HPM_P1;HPM_P2
2023/08/01 00:01:05;;;;;;;12.88;2.67;;;38.60;53.30;;;;;;5048841;28;20183;-54
2023/08/01 00:03:32;;;;;;;12.38;2.60;;;38.60;52.90;;;;;;5031671;28;20081;-58
2023/08/01 00:05:59;;;;;;;13.75;3.13;;;38.60;52.50;;;;;;5051772;28;20137;-57
2023/08/01 00:08:25;;;;;;;11.80;2.70;;;38.50;52.90;;;;;;5060517;28;20123;-56
2023/08/01 00:10:51;;;;;;;19.05;2.90;;;38.40;53.20;;;;;;5053361;28;20068;-58
2023/08/01 00:13:18;;;;;;;7.88;2.38;;;38.40;52.30;;;;;;5053954;28;20079;-55
2023/08/01 00:15:44;;;;;;;9.73;2.50;;;38.30;52.00;;;;;;5050525;28;20205;-58
2023/08/01 00:18:11;;;;;;;13.48;2.20;;;38.30;51.60;;;;;;5052900;28;20073;-56
2023/08/01 00:20:39;;;;;;;8.73;2.25;;;38.40;51.90;;;;;;5048587;28;20489;-56
2023/08/01 00:23:05;;;;;;;12.05;2.45;;;38.30;51.70;;;;;;5047493;28;20110;-56
2023/08/01 00:25:32;;;;;;;10.27;2.42;;;38.30;52.70;;;;;;5047461;28;20059;-58
2023/08/01 00:27:58;;;;;;;12.05;2.65;;;38.30;52.30;;;;;;5048482;28;20077;-57
2023/08/01 00:30:24;;;;;;;13.98;2.85;;;38.20;52.50;;;;;;5049207;28;20087;-56
2023/08/01 00:32:51;;;;;;;12.20;2.63;;;38.20;52.80;;;;;;5050718;28;20166;-59
2023/08/01 00:35:17;;;;;;;12.23;2.47;;;38.10;53.20;;;;;;5047277;28;20596;-59
2023/08/01 00:37:44;;;;;;;9.95;2.58;;;38.00;52.40;;;;;;5049809;28;20074;-60
2023/08/01 00:40:11;;;;;;;12.32;2.50;;;37.80;52.70;;;;;;5048977;28;20081;-56
2023/08/01 00:42:38;;;;;;;7.07;2.33;;;37.70;52.50;;;;;;5047625;28;20091;-58
2023/08/01 00:45:05;;;;;;;13.88;2.63;;;37.80;53.10;;;;;;5048115;28;20070;-58
2023/08/01 00:47:32;;;;;;;7.82;2.20;;;37.70;53.40;;;;;;5040891;28;20070;-56
2023/08/01 00:49:58;;;;;;;13.95;2.08;;;37.80;52.70;;;;;;5047171;28;20149;-56
2023/08/01 00:52:25;;;;;;;12.15;2.53;;;37.80;53.10;;;;;;5047414;28;20592;-58
2023/08/01 00:54:51;;;;;;;11.55;2.72;;;37.70;53.30;;;;;;5049515;28;20072;-56
2023/08/01 00:57:17;;;;;;;5.90;2.03;;;37.70;52.70;;;;;;5047354;28;20122;-58
2023/08/01 00:59:44;;;;;;;7.57;2.60;;;37.70;53.40;;;;;;5048047;28;20079;-59
2023/08/01 01:02:11;;;;;;;7.47;2.22;;;37.60;53.10;;;;;;5047953;28;20480;-57
2023/08/01 01:04:38;;;;;;;6.82;2.53;;;37.60;53.70;;;;;;5048550;28;20079;-57
2023/08/01 01:07:07;;;;;;;8.32;2.25;;;37.60;53.40;;;;;;5048324;28;20581;-58
2023/08/01 01:09:33;;;;;;;8.23;2.40;;;37.50;53.10;;;;;;5047980;28;20561;-56
2023/08/01 01:12:00;;;;;;;15.65;2.58;;;37.50;53.90;;;;;;5047821;28;20075;-60
2023/08/01 01:14:27;;;;;;;10.35;2.10;;;37.40;53.50;;;;;;5048894;28;20075;-55
2023/08/01 01:16:53;;;;;;;13.18;2.42;;;37.30;53.60;;;;;;5051734;28;20075;-60
2023/08/01 01:19:20;;;;;;;9.40;2.40;;;37.20;54.00;;;;;;5051765;28;20061;-57
2023/08/01 01:21:47;;;;;;;9.27;2.22;;;37.30;53.60;;;;;;5047483;28;20117;-57
2023/08/01 01:24:16;;;;;;;5.22;2.00;;;37.20;53.00;;;;;;5047691;28;20579;-58
2023/08/01 01:26:43;;;;;;;4.25;1.77;;;37.30;53.30;;;;;;5047861;28;20077;-58
2023/08/01 01:29:11;;;;;;;11.55;2.65;;;37.20;53.70;;;;;;5047133;28;20073;-55
2023/08/01 01:31:38;;;;;;;9.65;2.17;;;37.20;53.70;;;;;;5048909;28;20100;-57
2023/08/01 01:34:05;;;;;;;9.15;2.63;;;37.20;53.20;;;;;;5047777;28;20073;-54
2023/08/01 01:36:31;;;;;;;12.07;2.50;;;37.20;54.80;;;;;;5047144;28;20079;-59
2023/08/01 01:38:57;;;;;;;15.93;3.35;;;37.20;54.90;;;;;;5052730;28;20117;-56
2023/08/01 01:41:25;;;;;;;19.65;2.92;;;37.20;54.90;;;;;;5052244;28;20077;-58
2023/08/01 01:43:51;;;;;;;19.20;2.80;;;37.10;55.50;;;;;;5048854;28;20128;-60
2023/08/01 01:46:18;;;;;;;20.00;3.35;;;37.10;55.80;;;;;;5048624;28;20080;-57
2023/08/01 01:48:44;;;;;;;31.00;3.53;;;37.10;55.40;;;;;;5050178;28;20593;-55
2023/08/01 01:51:10;;;;;;;23.35;3.25;;;37.10;55.40;;;;;;5053831;28;20611;-57
2023/08/01 01:53:37;;;;;;;15.85;2.90;;;37.20;55.30;;;;;;5048498;28;20112;-57
2023/08/01 01:56:03;;;;;;;20.23;3.20;;;37.20;55.50;;;;;;5050242;28;20076;-57
2023/08/01 01:58:30;;;;;;;19.75;2.90;;;37.20;55.60;;;;;;5048933;28;20079;-56
2023/08/01 02:00:56;;;;;;;22.83;3.38;;;37.30;55.50;;;;;;5049899;28;20561;-58
2023/08/01 02:03:22;;;;;;;34.25;3.63;;;37.40;54.60;;;;;;5049423;28;20452;-58
2023/08/01 02:05:49;;;;;;;27.23;3.10;;;37.70;54.50;;;;;;5046581;28;20077;-58
2023/08/01 02:08:15;;;;;;;30.13;3.42;;;37.60;54.20;;;;;;5047751;28;20094;-58
2023/08/01 02:10:42;;;;;;;26.25;3.45;;;37.40;54.60;;;;;;5052496;28;20089;-55
2023/08/01 02:13:08;;;;;;;32.80;4.35;;;37.20;55.20;;;;;;5049949;28;20079;-57
2023/08/01 02:15:35;;;;;;;29.08;3.25;;;37.00;55.40;;;;;;5047969;28;20160;-56
2023/08/01 02:18:01;;;;;;;21.23;3.13;;;36.80;56.60;;;;;;5049377;28;20083;-57
2023/08/01 02:20:28;;;;;;;43.10;4.95;;;36.80;55.90;;;;;;5046269;28;20541;-58
2023/08/01 02:22:55;;;;;;;26.67;3.90;;;36.70;56.50;;;;;;5050101;28;20096;-57
2023/08/01 02:25:21;;;;;;;28.95;3.50;;;36.70;56.90;;;;;;5059320;28;20076;-59
2023/08/01 02:27:48;;;;;;;31.73;4.22;;;36.50;56.80;;;;;;5045930;28;20811;-59
2023/08/01 02:30:14;;;;;;;33.03;3.60;;;36.50;56.70;;;;;;5045332;28;20166;-59
2023/08/01 02:32:41;;;;;;;30.80;3.80;;;36.40;57.10;;;;;;5051071;28;20453;-59
2023/08/01 02:35:09;;;;;;;40.58;3.83;;;36.30;57.80;;;;;;5047856;28;20150;-58
2023/08/01 02:37:35;;;;;;;36.60;4.82;;;36.20;57.70;;;;;;5047784;28;20083;-56
2023/08/01 02:40:07;;;;;;;41.50;4.80;;;36.20;58.30;;;;;;5045828;28;20544;-55
2023/08/01 02:42:33;;;;;;;41.38;4.78;;;36.10;58.50;;;;;;5048118;28;20096;-59
2023/08/01 02:45:00;;;;;;;45.03;4.45;;;36.00;59.10;;;;;;5046061;28;20095;-60
2023/08/01 02:47:26;;;;;;;81.10;6.60;;;36.00;59.60;;;;;;5045872;28;20277;-57
2023/08/01 02:49:53;;;;;;;60.35;18.45;;;35.90;60.00;;;;;;5045260;28;20078;-59
2023/08/01 02:52:19;;;;;;;45.65;5.20;;;35.90;60.00;;;;;;5047842;28;20133;-57
2023/08/01 02:54:45;;;;;;;50.03;4.88;;;35.80;60.60;;;;;;5053244;28;20083;-57
2023/08/01 02:57:12;;;;;;;36.78;5.90;;;35.70;61.00;;;;;;5046200;28;20135;-57
2023/08/01 02:59:38;;;;;;;45.30;4.35;;;35.70;61.40;;;;;;5046534;28;20537;-58
2023/08/01 03:02:04;;;;;;;41.22;4.85;;;35.70;61.30;;;;;;5045789;28;20158;-56
2023/08/01 03:04:31;;;;;;;44.42;4.25;;;35.60;61.40;;;;;;5045244;28;20178;-56
2023/08/01 03:06:57;;;;;;;38.35;4.82;;;35.50;61.10;;;;;;5050602;28;20160;-56
2023/08/01 03:09:23;;;;;;;46.88;4.82;;;35.50;61.90;;;;;;5050089;28;20081;-54
2023/08/01 03:11:50;;;;;;;41.78;4.97;;;35.50;62.40;;;;;;5050187;28;20191;-56
2023/08/01 03:14:16;;;;;;;32.83;4.82;;;35.40;62.90;;;;;;5051917;28;20084;-58
2023/08/01 03:16:43;;;;;;;35.55;4.15;;;35.30;61.80;;;;;;5050044;28;20553;-56
2023/08/01 03:19:09;;;;;;;35.08;5.25;;;35.30;62.20;;;;;;5050404;28;20480;-54
2023/08/01 03:21:36;;;;;;;33.58;5.05;;;35.20;62.50;;;;;;5050897;28;20080;-59
2023/08/01 03:24:03;;;;;;;34.60;4.32;;;35.20;62.10;;;;;;5050830;28;20086;-56
2023/08/01 03:26:30;;;;;;;37.58;4.85;;;35.20;64.80;;;;;;5050667;28;20154;-59
2023/08/01 03:28:56;;;;;;;34.85;4.75;;;35.10;63.90;;;;;;5050417;28;20556;-59
2023/08/01 03:31:23;;;;;;;48.35;5.20;;;35.00;63.60;;;;;;5054461;28;20118;-56
2023/08/01 03:33:50;;;;;;;44.08;4.93;;;35.00;63.90;;;;;;5052968;28;20533;-58
2023/08/01 03:36:16;;;;;;;32.85;4.47;;;34.90;64.00;;;;;;5053713;28;20084;-58
2023/08/01 03:38:43;;;;;;;30.77;4.40;;;34.90;64.00;;;;;;5057678;28;20578;-56
2023/08/01 03:41:09;;;;;;;38.10;4.68;;;34.80;64.30;;;;;;5053590;28;20096;-57
2023/08/01 03:43:36;;;;;;;32.95;4.50;;;34.80;64.80;;;;;;5051849;28;20133;-58
2023/08/01 03:46:03;;;;;;;26.70;4.47;;;34.90;65.80;;;;;;5051432;28;20088;-58
2023/08/01 03:48:29;;;;;;;27.45;3.75;;;34.80;64.50;;;;;;5049453;28;20133;-60
2023/08/01 03:50:56;;;;;;;30.33;3.90;;;34.80;65.00;;;;;;5063627;28;20072;-58
2023/08/01 03:53:23;;;;;;;25.83;4.15;;;34.80;65.50;;;;;;5055220;28;20095;-59
2023/08/01 03:55:49;;;;;;;31.48;4.07;;;34.80;65.60;;;;;;5053830;28;20076;-56
2023/08/01 03:58:16;;;;;;;26.90;3.50;;;34.70;66.40;;;;;;5053131;28;20092;-56
2023/08/01 04:00:43;;;;;;;32.13;4.10;;;34.70;65.60;;;;;;5054209;28;20637;-61
2023/08/01 04:03:09;;;;;;;27.50;4.05;;;34.70;65.90;;;;;;5050246;28;20092;-57
2023/08/01 04:05:35;;;;;;;40.50;5.40;;;34.60;65.30;;;;;;5049907;28;20175;-58
2023/08/01 04:08:02;;;;;;;33.58;4.55;;;34.60;65.40;;;;;;5052374;28;20173;-59
2023/08/01 04:10:28;;;;;;;36.42;4.93;;;34.50;66.00;;;;;;5050280;28;20562;-58
2023/08/01 04:12:55;;;;;;;43.42;5.47;;;34.50;66.40;;;;;;5049751;28;20083;-56
2023/08/01 04:15:21;;;;;;;30.52;4.22;;;34.50;66.40;;;;;;5049012;28;20106;-58
2023/08/01 04:17:48;;;;;;;35.50;3.95;;;34.50;65.80;;;;;;5052571;28;20137;-58
2023/08/01 04:20:14;;;;;;;32.47;3.97;;;34.50;64.80;;;;;;5049584;28;20171;-60
2023/08/01 04:22:40;;;;;;;31.52;4.97;;;34.50;65.30;;;;;;5050258;28;20186;-55
2023/08/01 04:25:07;;;;;;;32.10;4.35;;;34.50;65.00;;;;;;5049565;28;20085;-56
2023/08/01 04:27:34;;;;;;;40.95;5.03;;;34.40;65.20;;;;;;5050456;28;20076;-58
2023/08/01 04:30:01;;;;;;;34.08;4.90;;;34.40;66.20;;;;;;5049165;28;20076;-56
2023/08/01 04:32:27;;;;;;;26.13;4.78;;;34.40;65.70;;;;;;5048705;28;20645;-57
2023/08/01 04:34:53;;;;;;;32.20;5.35;;;34.40;64.90;;;;;;5049339;28;20087;-58
2023/08/01 04:37:22;;;;;;;24.52;4.45;;;34.30;65.10;;;;;;5049681;28;20103;-56
2023/08/01 04:39:48;;;;;;;26.20;5.10;;;34.30;65.80;;;;;;5048661;28;20425;-57
2023/08/01 04:42:15;;;;;;;546.35;46.13;;;34.30;65.60;;;;;;5048855;28;20092;-59
2023/08/01 04:44:41;;;;;;;1389.90;148.00;;;34.20;65.40;;;;;;5050506;28;20114;-57
2023/08/01 04:47:08;;;;;;;747.90;66.47;;;34.20;65.20;;;;;;5049979;28;20084;-54
2023/08/01 04:49:34;;;;;;;635.42;52.22;;;34.20;66.00;;;;;;5031378;28;20087;-57
2023/08/01 04:52:00;;;;;;;1684.60;185.63;;;34.20;66.20;;;;;;5054543;28;20156;-55
2023/08/01 04:54:27;;;;;;;1117.85;112.30;;;34.20;66.60;;;;;;5047401;28;20409;-56
2023/08/01 04:56:53;;;;;;;909.17;92.25;;;34.20;66.80;;;;;;5050015;28;20083;-59
2023/08/01 04:59:19;;;;;;;893.42;95.35;;;34.10;68.40;;;;;;5050023;28;20073;-60
2023/08/01 05:01:46;;;;;;;359.70;29.23;;;34.10;67.90;;;;;;5048527;28;21374;-58
2023/08/01 05:04:12;;;;;;;133.88;14.25;;;34.10;66.90;;;;;;5047723;28;20486;-56
2023/08/01 05:06:40;;;;;;;100.38;10.98;;;34.10;67.40;;;;;;5050496;28;20122;-62
2023/08/01 05:09:06;;;;;;;118.78;11.05;;;34.20;66.60;;;;;;5049740;28;20556;-61
2023/08/01 05:11:33;;;;;;;46.58;5.93;;;34.60;64.80;;;;;;5047985;28;20083;-59
2023/08/01 05:13:59;;;;;;;36.40;6.22;;;34.90;66.20;;;;;;5049913;28;20084;-57
2023/08/01 05:16:26;;;;;;;39.60;5.40;;;35.00;65.90;;;;;;5047821;28;20130;-58
2023/08/01 05:18:52;;;;;;;24.52;5.55;;;35.10;66.10;;;;;;5046724;28;20096;-58
2023/08/01 05:21:18;;;;;;;26.65;5.15;;;35.10;65.20;;;;;;5049162;28;20203;-61
2023/08/01 05:23:45;;;;;;;31.52;5.93;;;35.00;65.60;;;;;;5048844;28;20456;-59
2023/08/01 05:26:11;;;;;;;35.85;5.78;;;35.00;66.50;;;;;;5046179;28;20141;-58
2023/08/01 05:28:37;;;;;;;35.83;5.03;;;35.00;65.80;;;;;;5046989;28;20087;-60
2023/08/01 05:31:04;;;;;;;29.58;4.97;;;35.10;66.70;;;;;;5046797;28;20106;-62
2023/08/01 05:33:31;;;;;;;22.15;4.72;;;35.00;67.00;;;;;;5046853;28;20087;-61
2023/08/01 05:35:57;;;;;;;22.13;4.78;;;35.00;66.70;;;;;;5046680;28;20483;-59
2023/08/01 05:38:24;;;;;;;29.48;5.28;;;35.00;67.40;;;;;;5047462;28;20453;-61
2023/08/01 05:40:50;;;;;;;26.65;5.72;;;34.90;66.50;;;;;;5047306;28;20090;-59
2023/08/01 05:43:17;;;;;;;27.60;5.32;;;34.90;67.20;;;;;;5046752;28;20095;-59
2023/08/01 05:45:43;;;;;;;27.33;5.88;;;34.90;67.60;;;;;;5047736;28;20081;-57
2023/08/01 05:48:10;;;;;;;34.58;6.70;;;34.90;67.40;;;;;;5048043;28;21129;-59
2023/08/01 05:50:37;;;;;;;32.40;5.85;;;34.90;67.80;;;;;;5046643;28;20072;-61
2023/08/01 05:53:03;;;;;;;38.00;6.47;;;34.80;67.30;;;;;;5045423;28;20084;-60
2023/08/01 05:55:30;;;;;;;28.52;6.82;;;34.70;67.60;;;;;;5047202;28;20108;-62
2023/08/01 05:57:56;;;;;;;30.55;7.05;;;34.70;68.50;;;;;;5047155;28;20092;-59
2023/08/01 06:00:23;;;;;;;29.30;6.38;;;34.80;68.10;;;;;;5048487;28;20145;-60
2023/08/01 06:02:52;;;;;;;25.67;6.05;;;34.60;68.90;;;;;;5044980;28;20092;-60
2023/08/01 06:05:19;;;;;;;26.23;5.60;;;34.70;69.60;;;;;;5045413;28;20077;-59
2023/08/01 06:07:45;;;;;;;28.05;5.95;;;34.60;70.30;;;;;;5053617;28;20084;-55
2023/08/01 06:10:12;;;;;;;33.05;5.78;;;34.50;68.60;;;;;;5046508;28;20122;-58
2023/08/01 06:12:38;;;;;;;34.25;6.05;;;34.40;70.00;;;;;;5045553;28;20088;-59
2023/08/01 06:15:05;;;;;;;31.67;5.93;;;34.40;70.90;;;;;;5044953;28;20076;-60
2023/08/01 06:17:32;;;;;;;24.50;5.95;;;34.40;71.00;;;;;;5049595;28;20083;-59
2023/08/01 06:19:58;;;;;;;34.25;5.70;;;34.40;71.10;;;;;;5048897;28;20481;-59
2023/08/01 06:22:24;;;;;;;31.27;5.10;;;34.40;70.80;;;;;;5028122;28;20088;-54
2023/08/01 06:24:51;;;;;;;30.80;5.60;;;34.30;72.10;;;;;;5048715;28;20088;-59
2023/08/01 06:27:17;;;;;;;26.35;5.22;;;34.30;72.30;;;;;;5046797;28;20577;-61
2023/08/01 06:29:44;;;;;;;25.23;5.03;;;34.30;72.20;;;;;;5046436;28;20089;-59
2023/08/01 06:32:11;;;;;;;27.20;5.93;;;34.10;71.40;;;;;;5049777;28;20127;-57
2023/08/01 06:34:38;;;;;;;30.20;7.53;;;34.10;72.50;;;;;;5045599;28;20083;-61
2023/08/01 06:37:04;;;;;;;29.05;8.55;;;34.10;72.10;;;;;;5047896;28;20084;-61
2023/08/01 06:39:31;;;;;;;49.42;9.27;;;34.10;72.20;;;;;;5049401;28;20087;-61
2023/08/01 06:41:57;;;;;;;30.02;7.18;;;34.00;71.20;;;;;;5050479;28;20076;-61
2023/08/01 06:44:23;;;;;;;29.33;5.90;;;34.00;71.90;;;;;;5050040;28;20553;-59
2023/08/01 06:46:50;;;;;;;40.38;5.68;;;33.90;71.50;;;;;;5049942;28;20084;-59
2023/08/01 06:49:16;;;;;;;30.20;5.47;;;33.90;71.60;;;;;;5054197;28;20562;-60
2023/08/01 06:51:42;;;;;;;26.02;5.32;;;33.80;72.90;;;;;;5065075;28;20448;-63
2023/08/01 06:54:09;;;;;;;30.13;5.15;;;33.90;72.20;;;;;;5049937;28;20088;-59
2023/08/01 06:56:35;;;;;;;26.33;5.45;;;33.80;72.50;;;;;;5050922;28;20512;-58
2023/08/01 06:59:02;;;;;;;40.13;5.35;;;33.80;73.20;;;;;;5056869;28;20096;-60
2023/08/01 07:01:28;;;;;;;23.67;4.70;;;33.80;72.30;;;;;;5048319;28;20154;-59
2023/08/01 07:03:55;;;;;;;32.70;5.45;;;33.70;72.00;;;;;;5051462;28;20159;-59
2023/08/01 07:06:23;;;;;;;22.85;3.70;;;33.70;71.60;;;;;;5052593;28;20092;-59
2023/08/01 07:08:50;;;;;;;21.25;4.30;;;33.70;71.60;;;;;;5048984;28;20104;-59
2023/08/01 07:11:16;;;;;;;33.40;4.95;;;33.70;71.40;;;;;;5048791;28;20158;-58
2023/08/01 07:13:42;;;;;;;28.25;5.25;;;33.70;71.20;;;;;;5054295;28;20080;-61
2023/08/01 07:16:09;;;;;;;41.47;4.60;;;33.60;71.50;;;;;;5053480;28;20457;-59
2023/08/01 07:18:35;;;;;;;38.17;5.18;;;33.50;70.80;;;;;;5053963;28;21498;-58
2023/08/01 07:21:05;;;;;;;34.25;4.50;;;33.50;71.90;;;;;;5054601;28;20110;-60
2023/08/01 07:23:33;;;;;;;39.90;5.03;;;33.40;71.20;;;;;;5049373;28;20098;-62
2023/08/01 07:26:00;;;;;;;40.70;4.80;;;33.40;71.80;;;;;;5049671;28;20088;-60
2023/08/01 07:28:26;;;;;;;37.75;4.80;;;33.40;72.10;;;;;;5050581;28;20175;-59
2023/08/01 07:30:59;;;;;;;35.85;4.80;;;33.30;72.00;;;;;;5048950;28;20089;-61
2023/08/01 07:33:26;;;;;;;39.38;5.18;;;33.20;73.00;;;;;;5050238;28;20118;-60
2023/08/01 07:35:53;;;;;;;29.30;4.70;;;33.30;72.60;;;;;;5050913;28;20080;-58
2023/08/01 07:38:19;;;;;;;27.45;4.22;;;33.30;72.30;;;;;;5048092;28;20128;-61
2023/08/01 07:40:45;;;;;;;32.08;4.63;;;33.20;72.00;;;;;;5049502;28;20084;-59
2023/08/01 07:43:12;;;;;;;32.50;4.80;;;33.20;72.00;;;;;;5052652;28;20092;-60
2023/08/01 07:45:39;;;;;;;24.67;4.45;;;33.20;72.00;;;;;;5048812;28;20566;-59
2023/08/01 07:48:06;;;;;;;23.23;4.45;;;33.20;72.10;;;;;;5049192;28;20088;-59
2023/08/01 07:50:32;;;;;;;22.58;4.68;;;33.20;72.40;;;;;;5048159;28;21521;-60
2023/08/01 07:52:58;;;;;;;36.17;5.32;;;33.10;72.70;;;;;;5049934;28;20180;-59
2023/08/01 07:55:25;;;;;;;26.92;5.82;;;33.10;73.20;;;;;;5048864;28;20083;-61
2023/08/01 07:57:51;;;;;;;18.38;7.15;;;33.10;74.60;;;;;;5048685;28;20076;-64
2023/08/01 08:00:18;;;;;;;27.17;8.80;;;33.10;76.60;;;;;;5047769;28;20133;-61
2023/08/01 08:02:45;;;;;;;33.47;9.57;;;33.10;78.80;;;;;;5048154;28;20092;-61
2023/08/01 08:05:12;;;;;;;32.20;9.48;;;33.10;79.60;;;;;;5048170;28;20089;-61
2023/08/01 08:07:39;;;;;;;25.50;9.32;;;33.10;81.30;;;;;;5048866;28;20072;-60
2023/08/01 08:10:06;;;;;;;26.52;9.77;;;33.10;82.20;;;;;;5049110;28;20107;-59
2023/08/01 08:12:33;;;;;;;28.85;9.23;;;33.00;83.00;;;;;;5050285;28;20096;-61
2023/08/01 08:14:59;;;;;;;30.42;9.52;;;33.00;83.60;;;;;;5031496;28;20077;-58
2023/08/01 08:17:26;;;;;;;28.13;8.93;;;32.90;83.50;;;;;;5050051;28;20120;-59
2023/08/01 08:19:52;;;;;;;24.55;9.35;;;32.80;83.90;;;;;;5050340;28;20081;-60
2023/08/01 08:22:18;;;;;;;30.55;8.68;;;32.80;85.30;;;;;;5048958;28;20077;-60
2023/08/01 08:24:45;;;;;;;26.55;8.98;;;32.70;85.90;;;;;;5049587;28;20179;-58
2023/08/01 08:27:11;;;;;;;22.98;8.90;;;32.70;85.40;;;;;;5051508;28;20083;-61
2023/08/01 08:29:37;;;;;;;18.33;8.70;;;32.60;85.70;;;;;;5053314;28;20076;-62
2023/08/01 08:32:04;;;;;;;23.40;9.38;;;32.60;87.00;;;;;;5050149;28;20123;-60
2023/08/01 08:34:31;;;;;;;21.30;8.75;;;32.60;87.10;;;;;;5056298;28;20080;-63
2023/08/01 08:36:57;;;;;;;25.20;8.52;;;32.60;87.40;;;;;;5054948;28;20103;-57
2023/08/01 08:39:23;;;;;;;25.38;8.68;;;32.50;87.80;;;;;;5049127;28;20473;-59
2023/08/01 08:41:52;;;;;;;22.38;8.80;;;32.60;87.90;;;;;;5049013;28;20505;-57
2023/08/01 08:44:24;;;;;;;21.75;9.13;;;32.50;87.20;;;;;;5048928;28;20142;-62
2023/08/01 08:46:54;;;;;;;28.73;8.95;;;32.50;88.20;;;;;;5048421;28;20088;-58
2023/08/01 08:49:21;;;;;;;21.40;9.02;;;32.40;88.80;;;;;;5048247;28;20100;-59
2023/08/01 08:51:49;;;;;;;23.23;8.45;;;32.40;89.10;;;;;;5047859;28;20541;-60
2023/08/01 08:54:16;;;;;;;25.27;8.93;;;32.40;89.70;;;;;;5047939;28;20092;-61
2023/08/01 08:56:44;;;;;;;27.40;8.93;;;32.40;90.00;;;;;;5049348;28;20094;-60
2023/08/01 08:59:10;;;;;;;21.92;8.45;;;32.40;90.10;;;;;;5033126;28;20115;-59
2023/08/01 09:01:38;;;;;;;29.92;9.35;;;32.30;90.40;;;;;;5047820;28;20100;-62
2023/08/01 09:04:05;;;;;;;27.00;9.63;;;32.30;90.40;;;;;;5047249;28;20084;-60
2023/08/01 09:06:46;;;;;;;22.13;8.80;;;32.30;90.50;;;;;;5047844;28;20080;-60
2023/08/01 09:09:13;;;;;;;21.52;8.30;;;32.30;91.00;;;;;;5047833;28;20141;-60
2023/08/01 09:11:53;;;;;;;21.90;7.78;;;32.30;91.30;;;;;;5048834;28;20080;-59
2023/08/01 09:14:20;;;;;;;25.00;8.85;;;32.30;91.20;;;;;;5048856;28;20541;-60
2023/08/01 09:16:47;;;;;;;23.00;9.20;;;32.30;91.70;;;;;;5049111;28;20084;-59
2023/08/01 09:19:21;;;;;;;25.08;8.48;;;32.30;92.30;;;;;;5048637;28;20627;-62
2023/08/01 09:21:48;;;;;;;26.52;8.88;;;32.30;92.50;;;;;;5057757;28;20175;-61
2023/08/01 09:24:17;;;;;;;22.42;7.72;;;32.30;92.80;;;;;;5048363;28;20088;-58
2023/08/01 09:26:44;;;;;;;21.75;8.57;;;32.20;92.70;;;;;;5051261;28;20134;-56
2023/08/01 09:29:11;;;;;;;23.20;8.55;;;32.30;93.20;;;;;;5048682;28;20099;-60
2023/08/01 09:31:40;;;;;;;18.35;7.60;;;32.30;93.50;;;;;;5047493;28;20173;-60
2023/08/01 09:34:17;;;;;;;27.08;7.72;;;32.20;93.60;;;;;;5046630;28;20076;-58
2023/08/01 09:36:44;;;;;;;19.90;7.70;;;32.20;93.80;;;;;;5048384;28;20095;-60
2023/08/01 09:39:16;;;;;;;20.23;7.72;;;32.20;94.10;;;;;;5047961;28;20137;-62
2023/08/01 09:41:43;;;;;;;27.40;8.20;;;32.20;94.40;;;;;;5048815;28;20102;-58
2023/08/01 09:44:16;;;;;;;29.17;7.43;;;32.10;94.20;;;;;;5047704;28;20142;-60
2023/08/01 09:46:44;;;;;;;23.17;7.15;;;32.10;94.40;;;;;;5048875;28;20563;-60
2023/08/01 09:49:12;;;;;;;22.45;7.72;;;32.10;94.70;;;;;;5047741;28;20080;-60
2023/08/01 09:51:49;;;;;;;19.70;7.53;;;32.00;95.10;;;;;;5029984;28;20076;-59
2023/08/01 09:54:16;;;;;;;34.03;8.30;;;32.00;95.40;;;;;;5050344;28;20088;-60
2023/08/01 09:56:49;;;;;;;24.98;7.55;;;32.00;95.70;;;;;;5049129;28;20631;-60
2023/08/01 09:59:24;;;;;;;22.10;7.82;;;32.00;96.10;;;;;;5048232;28;20098;-59
2023/08/01 10:01:52;;;;;;;22.90;8.30;;;32.00;96.40;;;;;;5052379;28;20186;-58
2023/08/01 10:04:26;;;;;;;24.25;7.90;;;31.90;96.50;;;;;;5047456;28;20180;-58
2023/08/01 10:07:03;;;;;;;18.70;7.65;;;31.90;96.80;;;;;;5047725;28;20084;-59
2023/08/01 10:09:31;;;;;;;16.35;6.68;;;31.90;97.30;;;;;;5047019;28;20086;-59
2023/08/01 10:11:58;;;;;;;18.80;7.20;;;31.80;97.20;;;;;;5052255;28;20075;-59
2023/08/01 10:14:26;;;;;;;16.42;7.32;;;31.80;97.30;;;;;;5048257;28;20163;-59
2023/08/01 10:16:53;;;;;;;21.38;8.05;;;31.80;97.40;;;;;;5047717;28;20571;-58
2023/08/01 10:19:20;;;;;;;21.10;7.85;;;31.80;97.50;;;;;;5058173;28;20106;-58
2023/08/01 10:21:48;;;;;;;22.40;7.03;;;31.80;97.60;;;;;;5048236;28;20107;-59
2023/08/01 10:24:16;;;;;;;19.15;7.65;;;31.80;97.40;;;;;;5046170;28;20694;-61
2023/08/01 10:26:48;;;;;;;19.30;6.85;;;31.70;97.20;;;;;;5045933;28;20092;-60
2023/08/01 10:29:14;;;;;;;19.90;6.65;;;31.70;97.40;;;;;;5046882;28;20080;-61
2023/08/01 10:31:52;;;;;;;17.70;6.95;;;31.70;97.40;;;;;;5029972;28;20084;-61
2023/08/01 10:34:23;;;;;;;22.13;7.80;;;31.60;97.20;;;;;;5046293;28;20123;-62
2023/08/01 10:36:57;;;;;;;17.65;6.72;;;31.60;97.30;;;;;;5047074;28;20088;-61
2023/08/01 10:39:25;;;;;;;17.35;7.32;;;31.70;97.50;;;;;;5044769;28;20571;-60
2023/08/01 10:42:03;;;;;;;18.05;6.70;;;31.70;97.50;;;;;;5047249;28;20088;-60
2023/08/01 10:44:31;;;;;;;21.38;7.13;;;31.70;97.20;;;;;;5046660;28;20099;-57
2023/08/01 10:47:04;;;;;;;18.52;7.03;;;31.60;97.30;;;;;;5046322;28;20241;-58
2023/08/01 10:49:42;;;;;;;20.08;6.72;;;31.50;97.50;;;;;;5047139;28;20089;-62
2023/08/01 10:52:21;;;;;;;20.52;7.57;;;31.50;97.30;;;;;;5046514;28;20528;-60
2023/08/01 10:54:55;;;;;;;20.38;6.60;;;31.50;97.80;;;;;;5047158;28;20162;-63
2023/08/01 10:57:21;;;;;;;13.65;6.65;;;31.40;97.40;;;;;;5046547;28;20510;-60
2023/08/01 10:59:48;;;;;;;20.55;6.72;;;31.40;97.30;;;;;;5046285;28;20080;-61
2023/08/01 11:02:21;;;;;;;18.38;7.53;;;31.30;97.60;;;;;;5046511;28;20398;-61
2023/08/01 11:05:05;;;;;;;21.13;7.13;;;31.40;97.70;;;;;;5046775;28;20577;-59
2023/08/01 11:07:31;;;;;;;24.08;7.20;;;31.30;98.30;;;;;;5045548;28;20122;-63
2023/08/01 11:10:06;;;;;;;20.50;9.38;;;31.30;98.20;;;;;;5070556;22;20173;-59
2023/08/01 11:12:50;;;;;;;32.22;11.43;;;31.20;97.80;;;;;;5064508;28;20084;-61
2023/08/01 11:15:16;;;;;;;24.05;11.32;;;31.20;97.70;;;;;;5065447;28;20126;-59
2023/08/01 11:17:48;;;;;;;22.17;10.18;;;31.00;97.70;;;;;;5062873;28;20118;-60
2023/08/01 11:20:14;;;;;;;23.75;10.57;;;31.00;97.70;;;;;;5063303;28;20426;-58
2023/08/01 11:23:01;;;;;;;28.65;11.07;;;31.00;98.30;;;;;;5061368;28;20099;-61
2023/08/01 11:25:34;;;;;;;22.95;10.23;;;31.00;98.20;;;;;;5058177;28;20084;-60
2023/08/01 11:28:09;;;;;;;16.38;8.73;;;30.90;98.20;;;;;;5063035;28;20107;-60
2023/08/01 11:30:36;;;;;;;23.38;9.43;;;30.90;97.90;;;;;;5062046;28;20134;-60
2023/08/01 11:33:12;;;;;;;20.20;8.82;;;30.80;98.00;;;;;;5063352;28;20230;-59
2023/08/01 11:35:39;;;;;;;18.13;9.07;;;30.80;97.80;;;;;;5060504;28;20097;-59
2023/08/01 11:38:06;;;;;;;22.38;8.52;;;30.80;98.10;;;;;;5058515;28;20153;-58
2023/08/01 11:40:34;;;;;;;25.95;9.15;;;30.80;98.00;;;;;;5060021;28;20076;-59
2023/08/01 11:43:00;;;;;;;19.35;8.90;;;30.70;98.00;;;;;;5061477;28;20574;-58
2023/08/01 11:45:26;;;;;;;22.48;9.15;;;30.70;98.40;;;;;;5061544;28;20110;-59
2023/08/01 11:47:53;;;;;;;18.63;8.93;;;30.70;98.50;;;;;;5060637;28;20083;-59
2023/08/01 11:50:24;;;;;;;22.98;9.27;;;30.70;98.60;;;;;;5057909;28;20484;-58
2023/08/01 11:52:51;;;;;;;23.70;8.65;;;30.70;98.70;;;;;;5060175;28;20080;-62
2023/08/01 11:55:34;;;;;;;24.17;9.07;;;30.60;99.00;;;;;;5060165;28;20088;-59
2023/08/01 11:58:01;;;;;;;20.88;8.50;;;30.60;99.10;;;;;;5058537;28;20180;-60
2023/08/01 12:00:29;;;;;;;23.95;8.93;;;30.50;99.60;;;;;;5057120;28;20103;-58
2023/08/01 12:03:15;;;;;;;22.27;8.50;;;30.60;99.90;;;;;;5055863;28;20503;-60
2023/08/01 12:05:45;;;;;;;23.05;8.48;;;30.60;99.90;;;;;;5060465;28;20427;-59
2023/08/01 12:08:15;;;;;;;20.83;8.88;;;30.50;99.90;;;;;;5063193;28;20168;-59
2023/08/01 12:10:43;;;;;;;19.95;7.97;;;30.50;99.90;;;;;;5059718;28;20079;-60
2023/08/01 12:13:23;;;;;;;20.90;8.00;;;30.40;99.90;;;;;;5059329;28;20080;-58
2023/08/01 12:15:50;;;;;;;16.42;7.28;;;30.40;99.90;;;;;;5060732;28;20084;-61
2023/08/01 12:18:28;;;;;;;23.73;8.90;;;30.40;99.90;;;;;;5060510;28;20080;-61
2023/08/01 12:20:55;;;;;;;13.85;7.50;;;30.40;99.90;;;;;;5055507;28;20112;-58
2023/08/01 12:23:22;;;;;;;17.73;8.10;;;30.40;99.90;;;;;;5056295;28;20099;-60
2023/08/01 12:25:49;;;;;;;18.33;8.07;;;30.30;99.90;;;;;;5056296;28;20088;-60
2023/08/01 12:28:16;;;;;;;18.40;7.32;;;30.30;99.90;;;;;;5065467;28;20113;-60
2023/08/01 12:30:43;;;;;;;19.00;7.85;;;30.30;99.90;;;;;;5059867;28;20134;-59
2023/08/01 12:33:10;;;;;;;19.65;8.23;;;30.20;99.90;;;;;;5059698;28;20202;-59
2023/08/01 12:35:41;;;;;;;21.50;7.93;;;30.20;99.90;;;;;;5061203;28;20091;-59
2023/08/01 12:38:08;;;;;;;13.98;7.05;;;30.10;99.90;;;;;;5059078;28;20080;-61